createdAt,value
2022-11-02T00:04:41.370Z,100852.50
2022-11-02T00:09:42.825Z,100847.03
2022-11-02T00:14:44.302Z,100840.34
2022-11-02T00:19:45.760Z,100850.66
2022-11-02T00:24:47.237Z,100835.91
2022-11-02T00:29:48.866Z,100843.56
2022-11-02T00:34:50.257Z,100837.47
2022-11-02T00:39:51.690Z,100836.13
2022-11-02T00:44:53.189Z,100849.97
2022-11-02T00:49:54.631Z,100851.09
2022-11-02T00:54:56.214Z,100851.56
2022-11-02T00:59:57.738Z,100858.56
2022-11-02T01:04:59.131Z,100871.66
2022-11-02T01:10:00.546Z,100866.31
2022-11-02T01:15:02.109Z,100859.44
2022-11-02T01:20:04.704Z,100858.69
2022-11-02T01:25:06.458Z,100846.56
2022-11-02T01:30:08.356Z,100837.88
2022-11-02T01:35:09.827Z,100829.13
2022-11-02T01:40:11.594Z,100828.53
2022-11-02T01:45:13.888Z,100824.09
2022-11-02T01:50:21.616Z,100817.41
2022-11-02T01:55:27.758Z,100824.66
2022-11-02T02:00:29.220Z,100803.88
2022-11-02T02:05:32.868Z,100804.72
2022-11-02T02:10:35.746Z,100813.63
2022-11-02T02:16:03.155Z,100815.78
2022-11-02T02:21:25.114Z,100812.97
2022-11-02T02:26:50.586Z,100810.34
2022-11-02T02:32:05.730Z,100813.34
2022-11-02T02:37:14.007Z,100806.94
2022-11-02T02:42:23.874Z,100799.09
2022-11-02T02:47:30.178Z,100806.72
2022-11-02T02:52:35.532Z,100815.72
2022-11-02T02:57:37.694Z,100806.72
2022-11-02T03:02:39.285Z,100817.75
2022-11-02T03:07:48.325Z,100821.69
2022-11-02T03:13:11.331Z,100812.34
2022-11-02T03:18:18.525Z,100821.56
2022-11-02T03:23:30.403Z,100823.84
2022-11-02T03:28:50.386Z,100822.91
2022-11-02T03:34:04.124Z,100821.38
2022-11-02T03:39:11.468Z,100823.31
2022-11-02T03:44:20.920Z,100842.78
2022-11-02T03:49:23.823Z,100837.00
2022-11-02T03:54:51.915Z,100850.19
2022-11-02T03:59:53.384Z,100837.25
2022-11-02T04:04:54.776Z,100859.44
2022-11-02T04:09:56.212Z,100851.69
2022-11-02T04:14:57.683Z,100864.63
2022-11-02T04:19:59.083Z,100859.81
2022-11-02T04:25:00.689Z,100867.78
2022-11-02T04:30:02.320Z,100874.88
2022-11-02T04:35:04.716Z,100872.94
2022-11-02T04:40:06.994Z,100890.13
2022-11-02T04:45:09.163Z,100884.25
2022-11-02T04:50:11.280Z,100885.69
2022-11-02T04:55:12.731Z,100882.56
2022-11-02T05:00:14.913Z,100887.72
2022-11-02T05:05:17.590Z,100900.22
2022-11-02T05:10:19.037Z,100912.03
2022-11-02T05:15:20.617Z,100913.09
2022-11-02T05:20:22.323Z,100912.25
2022-11-02T05:25:23.850Z,100918.13
2022-11-02T05:30:25.330Z,100926.81
2022-11-02T05:35:26.803Z,100934.88
2022-11-02T05:40:28.424Z,100935.44
2022-11-02T05:45:30.290Z,100938.94
2022-11-02T05:50:31.782Z,100944.09
2022-11-02T05:55:33.350Z,100953.94
2022-11-02T06:00:34.836Z,100957.06
2022-11-02T06:05:56.585Z,100961.31
2022-11-02T06:10:58.153Z,100974.38
2022-11-02T06:16:01.032Z,100971.97
2022-11-02T06:21:03.365Z,100975.72
2022-11-02T06:26:05.189Z,100989.53
2022-11-02T06:31:06.794Z,100988.34
2022-11-02T06:36:08.765Z,100998.34
2022-11-02T06:41:10.162Z,101007.09
2022-11-02T06:46:11.808Z,101003.94
2022-11-02T06:51:13.397Z,101012.13
2022-11-02T06:56:14.953Z,101017.91
2022-11-02T07:01:16.677Z,101028.75
2022-11-02T07:06:18.316Z,101033.44
2022-11-02T07:11:19.860Z,101045.84
2022-11-02T07:16:21.335Z,101054.38
2022-11-02T07:21:22.746Z,101067.25
2022-11-02T07:26:24.281Z,101070.88
2022-11-02T07:31:25.752Z,101080.00
2022-11-02T07:36:27.173Z,101092.75
2022-11-02T07:41:28.672Z,101091.22
2022-11-02T07:46:30.168Z,101098.28
2022-11-02T07:51:31.680Z,101109.03
2022-11-02T07:56:33.133Z,101120.31
2022-11-02T08:01:34.571Z,101120.34
2022-11-02T08:06:36.050Z,101123.22
2022-11-02T08:11:37.493Z,101127.66
2022-11-02T08:16:38.926Z,101128.28
2022-11-02T08:21:40.409Z,101128.06
2022-11-02T08:26:44.157Z,101118.03
2022-11-02T08:31:47.964Z,101113.66
2022-11-02T08:36:49.426Z,101129.59
2022-11-02T08:41:51.111Z,101128.41
2022-11-02T08:51:58.948Z,101131.22
2022-11-02T08:57:00.563Z,101144.50
2022-11-02T09:02:02.243Z,101148.03
2022-11-02T09:07:03.728Z,101158.94
2022-11-02T09:12:05.479Z,101149.63
2022-11-02T09:17:07.005Z,101161.53
2022-11-02T09:22:08.528Z,101158.56
2022-11-02T09:27:09.964Z,101166.22
2022-11-02T09:32:11.413Z,101161.59
2022-11-02T09:37:12.898Z,101186.50
2022-11-02T09:42:34.411Z,101195.31
2022-11-02T09:53:10.505Z,101201.78
2022-11-02T09:58:19.637Z,101207.53
2022-11-02T10:03:35.365Z,101211.72
2022-11-02T10:08:47.532Z,101214.66
2022-11-02T10:13:56.805Z,101222.06
2022-11-02T10:18:58.597Z,101211.03
2022-11-02T10:24:09.576Z,101203.78
2022-11-02T10:29:22.114Z,101189.56
2022-11-02T10:34:28.058Z,101202.84
2022-11-02T12:50:52.082Z,101149.13
2022-11-02T12:55:59.089Z,101145.06
2022-11-02T13:01:13.999Z,101142.09
2022-11-02T13:06:22.062Z,101130.63
2022-11-02T13:11:39.602Z,101127.13
2022-11-02T13:16:48.723Z,101118.75
2022-11-02T13:21:56.221Z,101107.22
2022-11-02T13:27:14.167Z,101114.50
2022-11-02T13:32:31.042Z,101112.72
2022-11-02T13:37:40.942Z,101110.56
2022-11-02T13:43:11.307Z,101118.97
2022-11-02T13:48:46.741Z,101121.91
2022-11-02T13:53:55.898Z,101115.81
2022-11-02T13:59:02.002Z,101119.66
2022-11-02T14:04:12.925Z,101113.91
2022-11-02T14:09:34.891Z,101120.88
2022-11-02T14:14:36.404Z,101113.84
2022-11-02T14:19:40.693Z,101112.84
2022-11-02T14:24:42.103Z,101120.63
2022-11-02T14:29:46.496Z,101119.53
2022-11-02T14:34:57.239Z,101104.59
2022-11-02T14:40:19.813Z,101102.34
2022-11-02T14:45:26.712Z,101103.97
2022-11-02T14:50:28.714Z,101092.38
2022-11-02T14:55:38.637Z,101092.44
2022-11-02T15:00:50.772Z,101089.19
2022-11-02T15:06:03.241Z,101094.03
2022-11-02T15:11:42.982Z,101094.31
2022-11-02T15:16:44.418Z,101103.03
2022-11-02T15:21:45.971Z,101095.34
2022-11-02T15:26:59.095Z,101088.66
2022-11-02T15:32:02.091Z,101088.69
2022-11-02T15:37:04.607Z,101093.69
2022-11-02T15:42:32.426Z,101082.28
2022-11-02T15:47:36.933Z,101072.09
2022-11-02T15:53:09.067Z,101070.69
2022-11-02T15:58:30.069Z,101067.84
2022-11-02T16:03:32.481Z,101072.56
2022-11-02T16:08:35.928Z,101067.75
2022-11-02T16:13:55.718Z,101055.47
2022-11-02T16:18:58.897Z,101056.41
2022-11-02T16:24:00.372Z,101060.53
2022-11-02T16:29:08.537Z,101061.03
2022-11-02T16:34:21.719Z,101055.59
2022-11-02T16:39:31.468Z,101054.84
2022-11-02T16:44:34.017Z,101062.66
2022-11-02T16:49:55.430Z,101066.94
2022-11-02T16:54:56.956Z,101051.22
2022-11-02T17:00:03.121Z,101048.31
2022-11-02T17:05:07.138Z,101059.69
2022-11-02T17:10:18.329Z,101071.72
2022-11-02T17:15:25.514Z,101074.28
2022-11-02T17:20:27.009Z,101074.84
2022-11-02T17:25:33.626Z,101075.19
2022-11-02T17:30:35.036Z,101076.94
2022-11-02T17:35:36.769Z,101082.22
2022-11-02T17:40:38.454Z,101071.91
2022-11-02T17:45:39.951Z,101071.38
2022-11-02T17:50:41.561Z,101073.91
2022-11-02T17:55:42.985Z,101067.03
2022-11-02T18:00:44.689Z,101064.63
2022-11-02T18:05:50.059Z,101062.84
2022-11-02T18:10:53.105Z,101070.06
2022-11-02T18:15:54.563Z,101072.06
2022-11-02T18:20:56.507Z,101067.22
2022-11-02T18:25:59.371Z,101061.72
2022-11-02T18:31:01.027Z,101058.16
2022-11-02T18:36:07.314Z,101050.97
2022-11-02T18:41:10.410Z,101053.94
2022-11-02T18:46:11.815Z,101047.59
2022-11-02T18:51:13.286Z,101044.63
2022-11-02T18:56:14.755Z,101042.31
2022-11-02T19:01:16.919Z,101033.66
2022-11-02T19:06:19.435Z,101047.97
2022-11-02T19:11:21.606Z,101016.97
2022-11-02T19:16:22.994Z,101017.84
2022-11-02T19:21:24.480Z,101006.47
2022-11-02T19:26:26.024Z,101006.00
2022-11-02T19:31:27.437Z,101002.41
2022-11-02T19:36:29.816Z,101003.50
2022-11-02T19:41:31.561Z,100997.88
2022-11-02T19:46:34.199Z,100998.00
2022-11-02T19:51:35.718Z,100992.94
2022-11-02T19:56:37.580Z,100991.69
2022-11-02T20:01:41.029Z,100988.13
2022-11-02T20:06:43.630Z,100991.63
2022-11-02T20:11:46.564Z,100988.31
2022-11-02T20:16:58.823Z,100990.91
2022-11-02T20:22:05.940Z,100989.22
2022-11-02T20:27:07.346Z,100994.41
2022-11-02T20:32:08.928Z,100995.38
2022-11-02T20:37:10.343Z,100994.03
2022-11-02T20:42:11.792Z,100982.66
2022-11-02T20:47:13.172Z,100967.78
2022-11-02T20:52:14.622Z,100967.09
2022-11-02T20:57:16.085Z,100962.94
2022-11-02T21:02:17.628Z,100956.19
2022-11-02T21:07:19.159Z,100959.38
2022-11-02T21:12:20.578Z,100960.69
2022-11-02T21:17:22.093Z,100966.53
2022-11-02T21:22:23.522Z,100953.22
2022-11-02T21:27:24.998Z,100952.72
2022-11-02T21:32:26.433Z,100959.34
2022-11-02T21:37:27.836Z,100947.94
2022-11-02T21:42:29.368Z,100937.88
2022-11-02T21:47:30.854Z,100942.69
2022-11-02T21:52:35.891Z,100942.03
2022-11-02T21:57:37.870Z,100934.94
2022-11-02T22:02:39.403Z,100933.16
2022-11-02T22:07:40.814Z,100924.63
2022-11-02T22:12:42.235Z,100908.50
2022-11-02T22:17:49.509Z,100907.72
2022-11-02T22:22:51.574Z,100903.03
2022-11-02T22:27:53.033Z,100909.16
2022-11-02T22:32:54.546Z,100898.78
2022-11-02T22:37:55.926Z,100895.16
2022-11-02T22:42:57.338Z,100878.41
2022-11-02T22:47:58.735Z,100889.63
2022-11-02T22:53:00.152Z,100888.63
2022-11-02T22:58:01.572Z,100866.69
2022-11-02T23:03:03.301Z,100863.88
2022-11-02T23:08:05.064Z,100855.22
2022-11-02T23:13:06.919Z,100858.34
2022-11-02T23:18:08.532Z,100860.25
2022-11-02T23:23:09.932Z,100852.47
2022-11-02T23:28:11.487Z,100852.91
2022-11-02T23:33:14.291Z,100844.38
2022-11-02T23:38:15.820Z,100841.56
2022-11-02T23:43:17.180Z,100836.41
2022-11-02T23:48:18.586Z,100827.13
2022-11-02T23:53:23.623Z,100808.47
2022-11-02T23:58:25.075Z,100800.34
